createdAt,value
2022-11-13T00:02:40.067Z,24.40
2022-11-13T00:05:30.877Z,24.30
2022-11-13T00:08:21.012Z,24.10
2022-11-13T00:11:22.038Z,24.30
2022-11-13T00:14:11.904Z,24.30
2022-11-13T00:17:02.217Z,24.40
2022-11-13T00:19:52.507Z,24.50
2022-11-13T00:22:42.919Z,24.60
2022-11-13T00:25:33.279Z,24.80
2022-11-13T00:28:24.417Z,24.60
2022-11-13T00:31:17.515Z,24.70
2022-11-13T00:34:33.311Z,24.70
2022-11-13T00:37:18.577Z,24.60
2022-11-13T00:40:10.948Z,24.50
2022-11-13T00:43:01.616Z,24.60
2022-11-13T00:45:51.892Z,24.60
2022-11-13T00:48:43.320Z,24.70
2022-11-13T00:51:35.289Z,25.00
2022-11-13T00:54:25.885Z,25.40
2022-11-13T00:57:19.171Z,25.50
2022-11-13T01:00:10.302Z,25.60
2022-11-13T01:03:04.091Z,25.80
2022-11-13T01:05:54.775Z,25.90
2022-11-13T01:08:47.844Z,25.90
2022-11-13T01:11:39.787Z,26.10
2022-11-13T01:14:31.878Z,26.30
2022-11-13T01:17:23.029Z,26.60
2022-11-13T01:20:14.733Z,26.70
2022-11-13T01:23:06.232Z,26.80
2022-11-13T01:25:59.033Z,26.60
2022-11-13T01:28:50.317Z,26.60
2022-11-13T01:31:40.235Z,26.80
2022-11-13T01:34:33.497Z,27.20
2022-11-13T01:37:23.746Z,27.40
2022-11-13T01:40:16.771Z,27.10
2022-11-13T01:43:29.114Z,26.90
2022-11-13T01:46:27.547Z,26.60
2022-11-13T01:49:41.681Z,26.70
2022-11-13T01:52:37.082Z,26.70
2022-11-13T01:55:27.342Z,26.60
2022-11-13T01:58:21.005Z,26.60
2022-11-13T02:01:11.268Z,26.80
2022-11-13T02:04:03.102Z,26.90
2022-11-13T02:07:02.350Z,27.30
2022-11-13T02:09:57.186Z,27.60
2022-11-13T02:12:53.617Z,27.70
2022-11-13T02:15:45.844Z,28.00
2022-11-13T02:18:47.418Z,28.40
2022-11-13T02:21:51.053Z,28.30
2022-11-13T02:24:55.145Z,28.60
2022-11-13T02:27:52.841Z,29.00
2022-11-13T02:31:08.545Z,29.00
2022-11-13T02:34:01.129Z,28.50
2022-11-13T02:36:52.686Z,28.30
2022-11-13T02:39:44.632Z,28.40
2022-11-13T02:42:35.052Z,28.50
2022-11-13T02:45:28.293Z,29.10
2022-11-13T02:48:21.076Z,29.40
2022-11-13T02:51:12.096Z,29.80
2022-11-13T02:54:16.540Z,30.00
2022-11-13T02:57:08.368Z,30.10
2022-11-13T02:59:59.708Z,30.30
2022-11-13T03:02:54.160Z,30.50
2022-11-13T03:06:00.417Z,30.40
2022-11-13T03:08:52.845Z,30.30
2022-11-13T03:11:49.040Z,30.40
2022-11-13T03:14:43.984Z,30.40
2022-11-13T03:17:35.716Z,30.70
2022-11-13T03:20:28.498Z,31.00
2022-11-13T03:23:20.473Z,31.00
2022-11-13T03:26:16.422Z,30.80
2022-11-13T03:29:07.800Z,30.50
2022-11-13T03:32:03.885Z,30.90
2022-11-13T03:35:06.644Z,31.10
2022-11-13T03:38:00.196Z,30.90
2022-11-13T03:40:51.877Z,31.00
2022-11-13T03:43:45.355Z,30.90
2022-11-13T03:46:38.496Z,31.10
2022-11-13T03:49:29.732Z,31.10
2022-11-13T03:52:24.834Z,31.20
2022-11-13T03:55:17.653Z,31.30
2022-11-13T03:58:08.115Z,31.70
2022-11-13T04:00:58.705Z,32.00
2022-11-13T04:03:55.229Z,31.90
2022-11-13T04:06:46.204Z,32.00
2022-11-13T04:09:38.515Z,31.80
2022-11-13T04:12:28.543Z,31.20
2022-11-13T04:15:20.468Z,30.90
2022-11-13T04:18:12.560Z,31.10
2022-11-13T04:21:06.099Z,31.70
2022-11-13T04:24:01.030Z,31.90
2022-11-13T04:30:06.194Z,32.60
2022-11-13T04:32:58.863Z,32.80
2022-11-13T04:38:54.491Z,32.90
2022-11-13T04:42:06.175Z,32.80
2022-11-13T04:45:02.033Z,32.70
2022-11-13T04:47:56.698Z,32.80
2022-11-13T04:50:49.383Z,32.90
2022-11-13T04:53:44.093Z,33.00
2022-11-13T04:56:39.434Z,32.80
2022-11-13T04:59:31.766Z,33.40
2022-11-13T05:02:24.364Z,33.00
2022-11-13T05:05:21.819Z,33.00
2022-11-13T05:08:15.149Z,32.60
2022-11-13T05:11:07.455Z,32.70
2022-11-13T05:14:03.060Z,32.00
2022-11-13T05:16:53.847Z,32.30
2022-11-13T05:19:46.762Z,32.40
2022-11-13T05:22:37.112Z,32.50
2022-11-13T05:25:30.065Z,32.20
2022-11-13T05:28:23.276Z,32.10
2022-11-13T05:31:16.025Z,32.10
2022-11-13T05:34:08.896Z,32.30
2022-11-13T05:36:58.811Z,32.30
2022-11-13T05:39:50.790Z,32.40
2022-11-13T05:42:40.685Z,32.60
2022-11-13T05:45:33.948Z,32.60
2022-11-13T05:48:27.298Z,32.40
2022-11-13T05:51:23.018Z,32.80
2022-11-13T05:57:23.210Z,33.10
2022-11-13T06:00:15.668Z,33.20
2022-11-13T06:03:07.446Z,33.60
2022-11-13T06:05:58.162Z,33.80
2022-11-13T06:08:58.019Z,34.10
2022-11-13T06:11:49.817Z,34.00
2022-11-13T06:14:41.542Z,34.10
2022-11-13T06:17:31.576Z,34.20
2022-11-13T06:20:22.864Z,35.00
2022-11-13T06:23:16.099Z,35.00
2022-11-13T06:26:11.666Z,34.90
2022-11-13T06:29:03.763Z,35.10
2022-11-13T06:31:54.371Z,35.30
2022-11-13T06:34:44.836Z,34.90
2022-11-13T06:37:36.855Z,35.10
2022-11-13T06:40:30.939Z,35.20
2022-11-13T06:43:22.161Z,35.10
2022-11-13T06:46:18.120Z,35.00
2022-11-13T06:52:20.318Z,35.30
2022-11-13T06:55:15.947Z,35.20
2022-11-13T06:58:08.014Z,35.70
2022-11-13T07:00:59.073Z,35.50
2022-11-13T07:03:49.833Z,35.20
2022-11-13T07:06:40.704Z,34.80
2022-11-13T07:09:34.497Z,34.60
2022-11-13T07:12:26.969Z,34.60
2022-11-13T07:15:19.158Z,34.70
2022-11-13T07:18:11.353Z,34.40
2022-11-13T07:21:07.969Z,34.60
2022-11-13T07:23:59.675Z,34.80
2022-11-13T07:26:50.755Z,35.10
2022-11-13T07:29:43.430Z,35.10
2022-11-13T07:32:41.489Z,35.30
2022-11-13T07:35:35.852Z,35.20
2022-11-13T07:38:28.850Z,35.40
2022-11-13T07:41:20.482Z,35.20
2022-11-13T07:44:27.240Z,35.00
2022-11-13T07:47:24.946Z,35.50
2022-11-13T07:50:15.558Z,35.40
2022-11-13T07:53:09.865Z,35.20
2022-11-13T07:56:05.855Z,35.00
2022-11-13T07:58:57.801Z,35.20
2022-11-13T08:01:58.976Z,35.10
2022-11-13T08:04:54.316Z,35.20
2022-11-13T08:07:52.546Z,35.10
2022-11-13T08:10:43.295Z,35.10
2022-11-13T08:13:36.748Z,35.20
2022-11-13T08:16:27.318Z,35.20
2022-11-13T08:19:18.799Z,35.30
2022-11-13T08:22:10.696Z,35.20
2022-11-13T08:25:01.416Z,35.00
2022-11-13T08:27:56.937Z,34.80
2022-11-13T08:30:48.050Z,34.70
2022-11-13T08:33:38.207Z,34.90
2022-11-13T08:36:29.260Z,34.70
2022-11-13T08:39:21.268Z,34.70
2022-11-13T08:42:12.564Z,34.50
2022-11-13T08:45:03.154Z,34.70
2022-11-13T08:47:56.877Z,34.50
2022-11-13T08:50:48.723Z,34.20
2022-11-13T08:53:41.515Z,34.10
2022-11-13T08:56:31.732Z,33.80
2022-11-13T08:59:23.142Z,33.60
2022-11-13T09:02:18.420Z,33.70
2022-11-13T09:05:10.265Z,33.60
2022-11-13T09:08:07.274Z,33.40
2022-11-13T09:10:58.055Z,33.40
2022-11-13T09:13:53.828Z,33.30
2022-11-13T09:16:47.925Z,33.10
2022-11-13T09:19:38.163Z,33.10
2022-11-13T09:22:30.489Z,33.20
2022-11-13T09:25:20.207Z,33.10
2022-11-13T09:28:15.565Z,33.20
2022-11-13T09:31:11.881Z,33.40
2022-11-13T09:34:02.395Z,33.40
2022-11-13T09:36:53.028Z,33.40
2022-11-13T09:39:49.699Z,33.60
2022-11-13T09:42:43.480Z,33.50
2022-11-13T09:45:37.898Z,33.40
2022-11-13T09:49:00.236Z,33.40
2022-11-13T09:52:06.354Z,33.30
2022-11-13T09:54:57.941Z,33.20
2022-11-13T09:58:27.419Z,33.10
2022-11-13T10:01:51.273Z,32.90
2022-11-13T10:05:10.016Z,32.90
2022-11-13T10:08:39.314Z,32.70
2022-11-13T10:12:08.969Z,32.70
2022-11-13T10:15:06.893Z,32.50
2022-11-13T10:18:10.610Z,32.40
2022-11-13T10:21:26.175Z,32.40
2022-11-13T10:24:43.121Z,32.40
2022-11-13T10:27:35.262Z,32.30
2022-11-13T10:30:26.587Z,32.30
2022-11-13T10:33:22.446Z,32.40
2022-11-13T10:36:52.935Z,32.40
2022-11-13T10:39:50.415Z,32.10
2022-11-13T10:42:47.058Z,31.30
2022-11-13T10:45:41.343Z,30.80
2022-11-13T10:48:39.618Z,30.50
2022-11-13T10:51:34.149Z,30.20
2022-11-13T10:54:33.563Z,30.20
2022-11-13T10:57:37.418Z,30.00
2022-11-13T11:00:38.040Z,30.00
2022-11-13T11:03:31.895Z,29.80
2022-11-13T11:06:26.050Z,29.80
2022-11-13T11:09:38.813Z,30.00
2022-11-13T11:12:31.602Z,29.90
2022-11-13T11:15:30.641Z,30.10
2022-11-13T11:18:38.351Z,30.20
2022-11-13T11:21:39.246Z,30.10
2022-11-13T11:24:41.571Z,30.20
2022-11-13T11:27:55.346Z,30.10
2022-11-13T11:30:54.586Z,30.10
2022-11-13T11:34:16.121Z,30.00
2022-11-13T11:37:17.708Z,30.10
2022-11-13T11:40:19.852Z,29.90
2022-11-13T11:43:37.055Z,30.00
2022-11-13T11:46:27.753Z,29.90
2022-11-13T11:49:21.054Z,29.70
2022-11-13T11:52:49.205Z,29.90
2022-11-13T11:56:12.023Z,30.10
2022-11-13T11:59:43.307Z,30.40
2022-11-13T12:03:13.555Z,30.70
2022-11-13T12:06:36.074Z,30.70
2022-11-13T12:09:38.713Z,30.50
2022-11-13T12:13:08.258Z,30.50
2022-11-13T12:16:24.905Z,30.50
2022-11-13T12:19:54.873Z,30.50
2022-11-13T12:23:03.992Z,30.40
2022-11-13T12:26:25.355Z,30.40
2022-11-13T12:29:42.915Z,30.50
2022-11-13T12:33:05.701Z,30.30
2022-11-13T12:35:57.022Z,30.10
2022-11-13T12:39:19.358Z,30.10
2022-11-13T12:42:27.645Z,30.20
2022-11-13T12:45:57.337Z,30.10
2022-11-13T12:48:49.452Z,29.70
2022-11-13T12:51:44.352Z,29.10
2022-11-13T12:54:38.144Z,29.00
2022-11-13T12:57:30.797Z,28.80
2022-11-13T13:00:30.457Z,28.70
2022-11-13T13:03:50.684Z,28.70
2022-11-13T13:07:20.085Z,28.70
2022-11-13T13:10:29.863Z,28.90
2022-11-13T13:13:40.233Z,28.90
2022-11-13T13:16:32.436Z,28.80
2022-11-13T13:19:33.587Z,28.80
2022-11-13T13:22:43.855Z,28.80
2022-11-13T13:25:38.289Z,29.00
2022-11-13T13:28:28.585Z,29.20
2022-11-13T13:31:43.513Z,29.20
2022-11-13T13:34:57.893Z,29.50
2022-11-13T13:38:27.572Z,29.60
2022-11-13T13:41:41.359Z,29.50
2022-11-13T13:45:10.663Z,29.50
2022-11-13T13:48:02.555Z,29.60
2022-11-13T13:50:54.576Z,29.00
2022-11-13T13:53:44.968Z,28.90
2022-11-13T13:56:36.881Z,28.80
2022-11-13T13:59:39.334Z,28.80
2022-11-13T14:02:30.595Z,28.50
2022-11-13T14:05:29.995Z,28.50
2022-11-13T14:08:29.191Z,28.40
2022-11-13T14:11:27.724Z,28.20
2022-11-13T14:14:25.713Z,28.20
2022-11-13T14:17:23.962Z,28.30
2022-11-13T14:20:14.937Z,28.30
2022-11-13T14:23:05.451Z,28.30
2022-11-13T14:25:57.463Z,28.20
2022-11-13T14:29:03.525Z,28.10
2022-11-13T14:31:54.307Z,28.20
2022-11-13T14:34:52.369Z,28.20
2022-11-13T14:37:51.173Z,28.70
2022-11-13T14:40:41.546Z,28.60
2022-11-13T14:43:36.457Z,28.90
2022-11-13T14:46:35.141Z,29.20
2022-11-13T14:49:32.083Z,29.40
2022-11-13T14:52:30.838Z,29.60
2022-11-13T14:55:41.682Z,29.40
2022-11-13T14:58:38.092Z,28.60
2022-11-13T15:01:30.060Z,28.20
2022-11-13T15:04:21.741Z,28.00
2022-11-13T15:07:44.536Z,27.90
2022-11-13T15:10:35.274Z,28.00
2022-11-13T15:13:27.587Z,28.00
2022-11-13T15:16:26.416Z,28.10
2022-11-13T15:19:31.804Z,28.20
2022-11-13T15:22:29.246Z,28.20
2022-11-13T15:25:22.641Z,28.20
2022-11-13T15:28:13.224Z,28.20
2022-11-13T15:31:04.000Z,28.10
2022-11-13T15:33:56.773Z,28.10
2022-11-13T15:36:47.637Z,28.10
2022-11-13T15:39:38.374Z,28.10
2022-11-13T15:42:34.330Z,28.10
2022-11-13T15:45:25.333Z,27.90
2022-11-13T15:48:15.755Z,27.70
2022-11-13T15:51:06.169Z,27.80
2022-11-13T15:54:00.906Z,27.80
2022-11-13T15:56:52.357Z,27.90
2022-11-13T15:59:46.644Z,27.90
2022-11-13T16:02:37.460Z,27.90
2022-11-13T16:05:31.763Z,27.90
2022-11-13T16:08:21.804Z,27.80
2022-11-13T16:11:19.527Z,27.80
2022-11-13T16:14:10.203Z,27.70
2022-11-13T16:17:01.224Z,27.60
2022-11-13T16:19:55.762Z,27.80
2022-11-13T16:22:47.104Z,27.70
2022-11-13T16:25:37.306Z,27.60
2022-11-13T16:28:29.372Z,27.60
2022-11-13T16:31:23.274Z,27.70
2022-11-13T16:34:13.949Z,27.60
2022-11-13T16:37:04.798Z,27.50
2022-11-13T16:39:55.669Z,27.50
2022-11-13T16:42:46.699Z,27.50
2022-11-13T16:45:40.345Z,27.50
2022-11-13T16:48:31.225Z,27.40
2022-11-13T16:51:22.366Z,27.50
2022-11-13T16:54:13.200Z,27.50
2022-11-13T16:57:03.686Z,27.40
2022-11-13T16:59:54.673Z,27.50
2022-11-13T17:02:45.014Z,27.30
2022-11-13T17:05:35.050Z,27.30
2022-11-13T17:08:25.322Z,27.50
2022-11-13T17:11:16.586Z,27.40
2022-11-13T17:14:06.285Z,27.40
2022-11-13T17:16:56.243Z,27.40
2022-11-13T17:19:46.484Z,27.40
2022-11-13T17:22:36.542Z,27.40
2022-11-13T17:25:28.272Z,27.30
2022-11-13T17:28:18.069Z,27.40
2022-11-13T17:31:10.356Z,27.30
2022-11-13T17:34:00.981Z,27.30
2022-11-13T17:36:50.732Z,27.30
2022-11-13T17:39:40.814Z,27.40
2022-11-13T17:42:30.980Z,27.40
2022-11-13T17:45:21.142Z,27.50
2022-11-13T17:48:10.971Z,27.30
2022-11-13T17:51:02.546Z,27.30
2022-11-13T17:53:52.119Z,27.20
2022-11-13T17:56:44.319Z,27.30
2022-11-13T17:59:34.226Z,27.10
2022-11-13T18:02:23.817Z,27.20
2022-11-13T18:05:14.702Z,27.10
2022-11-13T18:08:04.652Z,27.00
2022-11-13T18:10:57.922Z,27.10
2022-11-13T18:13:48.933Z,26.60
2022-11-13T18:16:38.955Z,26.70
2022-11-13T18:19:29.053Z,26.80
2022-11-13T18:22:19.552Z,26.50
2022-11-13T18:25:09.896Z,26.60
2022-11-13T18:27:59.506Z,26.40
2022-11-13T18:30:55.098Z,26.50
2022-11-13T18:33:46.511Z,26.50
2022-11-13T18:36:37.353Z,26.50
2022-11-13T18:39:27.694Z,26.50
2022-11-13T18:42:17.656Z,26.80
2022-11-13T18:45:08.257Z,26.90
2022-11-13T18:47:58.439Z,26.80
2022-11-13T18:51:05.469Z,26.60
2022-11-13T18:53:56.212Z,26.60
2022-11-13T18:56:45.879Z,26.80
2022-11-13T18:59:35.970Z,26.80
2022-11-13T19:02:26.405Z,26.80
2022-11-13T19:05:17.109Z,26.70
2022-11-13T19:08:07.234Z,26.60
2022-11-13T19:10:57.117Z,26.60
2022-11-13T19:13:48.581Z,26.40
2022-11-13T19:16:41.150Z,26.40
2022-11-13T19:19:31.067Z,26.40
2022-11-13T19:22:21.312Z,26.40
2022-11-13T19:25:12.137Z,26.40
2022-11-13T19:28:01.767Z,26.50
2022-11-13T19:30:55.922Z,26.50
2022-11-13T19:33:47.465Z,26.30
2022-11-13T19:36:38.296Z,26.40
2022-11-13T19:39:28.344Z,26.50
2022-11-13T19:42:18.274Z,26.50
2022-11-13T19:45:08.736Z,26.60
2022-11-13T19:47:58.943Z,26.60
2022-11-13T19:50:49.735Z,26.60
2022-11-13T19:53:41.119Z,26.50
2022-11-13T19:56:31.345Z,26.40
2022-11-13T19:59:21.543Z,26.30
2022-11-13T20:02:12.615Z,26.30
2022-11-13T20:05:03.234Z,26.20
2022-11-13T20:07:52.884Z,26.20
2022-11-13T20:10:42.861Z,26.20
2022-11-13T20:13:40.836Z,26.20
2022-11-13T20:16:31.696Z,26.30
2022-11-13T20:19:22.547Z,26.40
2022-11-13T20:22:12.459Z,26.50
2022-11-13T20:25:02.140Z,26.40
2022-11-13T20:27:51.911Z,26.50
2022-11-13T20:30:41.900Z,26.40
2022-11-13T20:33:36.040Z,26.40
2022-11-13T20:36:26.820Z,26.40
2022-11-13T20:39:17.066Z,26.30
2022-11-13T20:42:07.313Z,26.30
2022-11-13T20:45:00.975Z,26.30
2022-11-13T20:47:51.288Z,26.20
2022-11-13T20:50:41.347Z,26.10
2022-11-13T20:53:31.706Z,26.10
2022-11-13T20:56:23.258Z,26.00
2022-11-13T20:59:13.322Z,25.90
2022-11-13T21:02:02.916Z,26.00
2022-11-13T21:04:52.791Z,26.10
2022-11-13T21:07:42.685Z,26.20
2022-11-13T21:10:33.287Z,26.20
2022-11-13T21:13:23.358Z,26.20
2022-11-13T21:16:13.694Z,26.20
2022-11-13T21:19:03.801Z,26.20
2022-11-13T21:21:54.244Z,26.10
2022-11-13T21:24:43.946Z,26.10
2022-11-13T21:27:34.028Z,26.10
2022-11-13T21:30:24.809Z,26.10
2022-11-13T21:33:14.788Z,26.10
2022-11-13T21:36:09.709Z,26.00
2022-11-13T21:38:59.624Z,26.20
2022-11-13T21:41:49.273Z,26.10
2022-11-13T21:44:39.416Z,26.00
2022-11-13T21:47:29.591Z,26.10
2022-11-13T21:50:19.707Z,26.10
2022-11-13T21:53:09.952Z,26.20
2022-11-13T21:56:00.279Z,26.00
2022-11-13T21:58:50.191Z,26.10
2022-11-13T22:01:40.269Z,26.10
2022-11-13T22:04:30.698Z,26.10
2022-11-13T22:07:20.671Z,26.20
2022-11-13T22:10:10.581Z,26.20
2022-11-13T22:13:00.587Z,26.00
2022-11-13T22:15:52.058Z,25.90
2022-11-13T22:18:42.351Z,25.90
2022-11-13T22:21:33.577Z,26.00
2022-11-13T22:24:23.607Z,25.90
2022-11-13T22:27:13.718Z,25.90
2022-11-13T22:30:03.740Z,26.00
2022-11-13T22:32:53.651Z,26.10
2022-11-13T22:35:43.548Z,26.10
2022-11-13T22:38:34.489Z,26.10
2022-11-13T22:41:30.896Z,26.00
2022-11-13T22:44:20.444Z,26.00
2022-11-13T22:47:10.454Z,26.00
2022-11-13T22:50:02.081Z,25.90
2022-11-13T22:52:53.962Z,25.80
2022-11-13T22:55:44.178Z,25.90
2022-11-13T22:58:34.531Z,25.80
2022-11-13T23:01:26.501Z,25.90
2022-11-13T23:04:17.077Z,25.80
2022-11-13T23:07:06.672Z,25.80
2022-11-13T23:09:56.722Z,25.80
2022-11-13T23:12:46.948Z,25.70
2022-11-13T23:15:36.839Z,25.80
2022-11-13T23:18:27.546Z,25.80
2022-11-13T23:21:19.007Z,25.80
2022-11-13T23:24:09.166Z,25.70
2022-11-13T23:26:59.060Z,25.80
2022-11-13T23:29:50.232Z,25.80
2022-11-13T23:32:40.085Z,25.80
2022-11-13T23:35:30.314Z,25.90
2022-11-13T23:38:20.224Z,25.90
2022-11-13T23:41:10.940Z,26.00
2022-11-13T23:44:09.355Z,26.00
2022-11-13T23:46:59.409Z,26.00
2022-11-13T23:49:49.319Z,26.10
2022-11-13T23:52:39.477Z,26.10
2022-11-13T23:55:29.730Z,26.00
2022-11-13T23:58:20.084Z,26.00
